Time;durP1;ratioP1;P1;durP2;ratioP2;P2;SDS_P1;SDS_P2;PMS_P1;PMS_P2;Temp;Humidity;BMP_temperature;BMP_pressure;BME280_temperature;BME280_humidity;BME280_pressure;Samples;Min_cycle;Max_cycle;Signal;HPM_P1;HPM_P2
2021/03/08 00:01:16;;;;;;;33.37;16.70;;;5.60;99.90;;;;;;5054163;28;20196;-76
2021/03/08 00:03:43;;;;;;;38.00;19.30;;;5.70;99.90;;;;;;5057919;28;20286;-76
2021/03/08 00:06:09;;;;;;;32.67;18.00;;;5.70;99.90;;;;;;5060902;28;20218;-75
2021/03/08 00:08:36;;;;;;;32.10;17.23;;;5.70;99.90;;;;;;5032496;28;20240;-76
2021/03/08 00:11:02;;;;;;;31.60;17.30;;;5.70;99.90;;;;;;5049448;28;20301;-75
2021/03/08 00:13:28;;;;;;;33.03;17.23;;;5.60;99.90;;;;;;5046468;28;20276;-75
2021/03/08 00:15:55;;;;;;;36.60;19.33;;;5.70;99.90;;;;;;5049213;28;20269;-75
2021/03/08 00:18:21;;;;;;;30.47;18.20;;;5.70;99.90;;;;;;5049042;28;20203;-75
2021/03/08 00:20:48;;;;;;;31.70;17.57;;;5.70;99.90;;;;;;5061067;28;20220;-76
2021/03/08 00:23:15;;;;;;;38.67;18.37;;;5.70;99.90;;;;;;5061059;28;20198;-75
2021/03/08 00:25:41;;;;;;;35.40;19.63;;;5.60;99.90;;;;;;5053057;28;20676;-75
2021/03/08 00:28:08;;;;;;;35.97;19.37;;;5.70;99.90;;;;;;5048241;28;20942;-75
2021/03/08 00:30:34;;;;;;;35.43;17.90;;;5.70;99.90;;;;;;5049511;28;20206;-75
2021/03/08 00:33:01;;;;;;;32.53;17.70;;;5.90;99.90;;;;;;5061324;28;20715;-75
2021/03/08 00:35:28;;;;;;;35.10;18.73;;;5.80;99.90;;;;;;5045349;28;20619;-75
2021/03/08 00:37:54;;;;;;;31.07;16.27;;;5.50;99.90;;;;;;5057488;28;20286;-75
2021/03/08 00:40:22;;;;;;;33.73;17.57;;;5.50;99.90;;;;;;5047581;28;20196;-75
2021/03/08 00:42:49;;;;;;;35.10;18.37;;;4.90;99.90;;;;;;5057879;28;20255;-76
2021/03/08 00:45:21;;;;;;;31.70;17.47;;;4.70;99.90;;;;;;5049397;28;20349;-76
2021/03/08 00:47:48;;;;;;;32.70;16.10;;;4.70;99.90;;;;;;5058054;28;20212;-76
2021/03/08 00:50:20;;;;;;;33.90;17.23;;;4.60;99.90;;;;;;5044723;28;20517;-75
2021/03/08 00:52:47;;;;;;;32.83;17.37;;;4.90;99.90;;;;;;5067610;28;20697;-75
2021/03/08 00:55:14;;;;;;;32.47;18.23;;;4.90;99.90;;;;;;5056376;28;20255;-75
2021/03/08 00:57:41;;;;;;;39.97;19.10;;;5.00;99.90;;;;;;5058005;28;20569;-76
2021/03/08 01:00:11;;;;;;;35.87;17.73;;;5.10;99.90;;;;;;5058693;28;20211;-75
2021/03/08 01:02:38;;;;;;;34.20;17.70;;;5.20;99.90;;;;;;5061785;28;20202;-75
2021/03/08 01:05:06;;;;;;;35.70;18.47;;;5.20;99.90;;;;;;5062194;28;20286;-75
2021/03/08 01:07:33;;;;;;;33.10;16.93;;;5.30;99.90;;;;;;5060534;28;20282;-75
2021/03/08 01:09:59;;;;;;;36.60;18.37;;;5.20;99.90;;;;;;5050559;28;20614;-76
2021/03/08 01:12:26;;;;;;;32.53;17.93;;;5.30;99.90;;;;;;5040935;28;20218;-76
2021/03/08 01:14:52;;;;;;;35.30;17.47;;;5.30;99.90;;;;;;5039586;28;20236;-76
2021/03/08 01:17:19;;;;;;;32.13;17.90;;;5.30;99.90;;;;;;5060324;28;20194;-75
2021/03/08 01:19:45;;;;;;;37.53;19.27;;;5.30;99.90;;;;;;5059275;28;20239;-76
2021/03/08 01:22:12;;;;;;;38.10;18.70;;;5.30;99.90;;;;;;5042923;28;20261;-75
2021/03/08 01:24:38;;;;;;;32.33;17.90;;;5.40;99.90;;;;;;5058526;28;20269;-75
2021/03/08 01:27:05;;;;;;;33.43;17.30;;;5.40;99.90;;;;;;5059202;28;20242;-76
2021/03/08 01:29:32;;;;;;;30.60;16.40;;;5.10;99.90;;;;;;5046232;28;20240;-76
2021/03/08 01:31:58;;;;;;;29.40;16.13;;;4.60;99.90;;;;;;5056543;28;20242;-76
2021/03/08 01:34:24;;;;;;;35.93;18.17;;;4.40;99.90;;;;;;5032326;28;20200;-76
2021/03/08 01:36:51;;;;;;;33.63;17.33;;;4.20;99.90;;;;;;5047065;28;20650;-76
2021/03/08 01:39:17;;;;;;;33.37;17.10;;;4.00;99.90;;;;;;5042406;28;20342;-75
2021/03/08 01:41:43;;;;;;;34.03;16.47;;;3.80;99.90;;;;;;5046523;28;20207;-76
2021/03/08 01:44:09;;;;;;;35.50;17.73;;;3.80;99.90;;;;;;5054229;28;20198;-76
2021/03/08 01:46:36;;;;;;;42.57;19.13;;;3.70;99.90;;;;;;5061863;28;20248;-76
2021/03/08 01:49:04;;;;;;;35.03;17.93;;;3.60;99.90;;;;;;5047566;28;20202;-76
2021/03/08 01:51:31;;;;;;;36.33;17.17;;;3.70;99.90;;;;;;5061022;28;20323;-77
2021/03/08 01:53:57;;;;;;;30.93;16.17;;;3.60;99.90;;;;;;5048891;28;20335;-75
2021/03/08 01:56:24;;;;;;;36.87;16.93;;;3.60;99.90;;;;;;5034958;28;20262;-75
2021/03/08 01:58:51;;;;;;;33.47;17.27;;;3.70;99.90;;;;;;5050313;28;20227;-75
2021/03/08 02:01:17;;;;;;;33.23;18.23;;;3.90;99.90;;;;;;5047442;28;20252;-75
2021/03/08 02:03:44;;;;;;;38.47;17.93;;;4.00;99.90;;;;;;5048211;28;20641;-75
2021/03/08 02:06:10;;;;;;;35.33;18.70;;;4.30;99.90;;;;;;5047942;28;20200;-76
2021/03/08 02:08:38;;;;;;;31.77;16.67;;;4.40;99.90;;;;;;5064956;28;20767;-76
2021/03/08 02:11:04;;;;;;;29.10;16.03;;;4.50;99.90;;;;;;5063727;28;20244;-75
2021/03/08 02:14:02;;;;;;;30.03;16.60;;;4.20;99.90;;;;;;5061403;28;20302;-75
2021/03/08 02:16:33;;;;;;;33.93;17.20;;;4.40;99.90;;;;;;5063150;28;20643;-76
2021/03/08 02:19:16;;;;;;;32.33;17.20;;;4.50;99.90;;;;;;5061402;28;20706;-75
2021/03/08 02:22:01;;;;;;;34.17;17.80;;;4.60;99.90;;;;;;5063342;28;20246;-75
2021/03/08 02:24:27;;;;;;;32.43;17.23;;;4.20;99.90;;;;;;5061541;28;20557;-75
2021/03/08 02:27:10;;;;;;;32.17;16.73;;;3.90;99.90;;;;;;5061344;28;20310;-75
2021/03/08 02:30:06;;;;;;;31.40;17.30;;;3.80;99.90;;;;;;5050346;28;20227;-75
2021/03/08 02:32:47;;;;;;;36.03;18.40;;;3.70;99.90;;;;;;5044593;28;20219;-75
2021/03/08 02:35:26;;;;;;;32.63;16.70;;;3.50;99.90;;;;;;5062560;28;20762;-75
2021/03/08 02:38:16;;;;;;;40.40;18.77;;;3.50;99.90;;;;;;5048733;28;20217;-75
2021/03/08 02:40:46;;;;;;;34.40;16.53;;;3.50;99.90;;;;;;5045051;28;20544;-75
2021/03/08 02:43:22;;;;;;;31.37;16.57;;;3.60;99.90;;;;;;5062708;28;20287;-75
2021/03/08 02:45:53;;;;;;;40.40;18.37;;;3.40;99.90;;;;;;5042364;28;20202;-75
2021/03/08 02:48:23;;;;;;;34.17;17.40;;;3.40;99.90;;;;;;5045508;28;21086;-75
2021/03/08 02:50:55;;;;;;;33.80;16.77;;;3.40;99.90;;;;;;5061958;28;20206;-75
2021/03/08 02:53:26;;;;;;;32.00;16.00;;;3.20;99.90;;;;;;5046865;28;20215;-75
2021/03/08 02:55:59;;;;;;;38.33;18.73;;;3.30;99.90;;;;;;5058943;28;20716;-76
2021/03/08 02:58:26;;;;;;;33.63;17.83;;;3.30;99.90;;;;;;5060858;28;20221;-75
2021/03/08 03:01:07;;;;;;;38.10;18.60;;;3.40;99.90;;;;;;5062137;28;20211;-76
2021/03/08 03:03:38;;;;;;;40.40;18.87;;;3.50;99.90;;;;;;5049659;28;20880;-75
2021/03/08 03:06:05;;;;;;;35.00;18.70;;;3.40;99.90;;;;;;5065397;28;20632;-75
2021/03/08 03:08:33;;;;;;;36.40;19.53;;;3.30;99.90;;;;;;5062839;28;20193;-76
2021/03/08 03:11:00;;;;;;;40.43;20.13;;;3.40;99.90;;;;;;5059232;28;20234;-75
2021/03/08 03:13:27;;;;;;;36.63;17.53;;;3.40;99.90;;;;;;5057842;28;20230;-75
2021/03/08 03:15:55;;;;;;;38.73;18.83;;;3.40;99.90;;;;;;5044443;28;20293;-74
2021/03/08 03:18:26;;;;;;;40.37;17.90;;;3.30;99.90;;;;;;5056496;28;20229;-74
2021/03/08 03:20:55;;;;;;;36.87;17.37;;;3.30;99.90;;;;;;5046039;28;20673;-75
2021/03/08 03:23:25;;;;;;;42.20;18.73;;;3.50;99.90;;;;;;5064028;28;20293;-75
2021/03/08 03:25:52;;;;;;;33.97;17.30;;;3.70;99.90;;;;;;5042441;28;20192;-75
2021/03/08 03:28:22;;;;;;;36.33;18.63;;;3.70;99.90;;;;;;5063713;28;20276;-75
2021/03/08 03:30:49;;;;;;;33.60;17.13;;;3.60;99.90;;;;;;5062819;28;20285;-75
2021/03/08 03:33:17;;;;;;;36.30;17.10;;;3.60;99.90;;;;;;5045926;28;21228;-75
2021/03/08 03:35:44;;;;;;;38.77;17.20;;;3.70;99.90;;;;;;5047128;28;20233;-75
2021/03/08 03:38:11;;;;;;;37.07;19.13;;;3.70;99.90;;;;;;5059141;28;20205;-75
2021/03/08 03:40:37;;;;;;;44.50;19.93;;;3.70;99.90;;;;;;5041838;28;20209;-75
2021/03/08 03:43:04;;;;;;;41.13;18.83;;;3.80;99.90;;;;;;5057710;28;20208;-75
2021/03/08 03:45:30;;;;;;;37.13;19.20;;;4.00;99.90;;;;;;5059728;28;20316;-75
2021/03/08 03:47:57;;;;;;;35.67;19.07;;;4.20;99.90;;;;;;5063568;28;20254;-75
2021/03/08 03:50:25;;;;;;;41.63;18.53;;;4.20;99.90;;;;;;5041567;28;20208;-75
2021/03/08 03:52:52;;;;;;;39.20;19.20;;;4.40;99.90;;;;;;5045891;28;20213;-75
2021/03/08 03:55:19;;;;;;;38.03;19.03;;;4.60;99.90;;;;;;5059083;28;20271;-76
2021/03/08 03:57:49;;;;;;;36.43;17.30;;;4.70;99.90;;;;;;5062448;28;20206;-76
2021/03/08 04:00:22;;;;;;;33.90;18.40;;;4.80;99.90;;;;;;5064150;28;20283;-76
2021/03/08 04:02:58;;;;;;;35.87;18.37;;;4.80;99.90;;;;;;5060209;28;20235;-75
2021/03/08 04:05:25;;;;;;;34.60;18.87;;;4.80;99.90;;;;;;5057664;28;20292;-76
2021/03/08 04:07:54;;;;;;;40.47;18.83;;;4.50;99.90;;;;;;5049756;28;20202;-75
2021/03/08 04:10:22;;;;;;;38.20;19.33;;;4.70;99.90;;;;;;5064190;28;20217;-76
2021/03/08 04:12:54;;;;;;;32.63;16.80;;;4.70;99.90;;;;;;5048020;28;20710;-76
2021/03/08 04:15:24;;;;;;;32.53;17.97;;;4.80;99.90;;;;;;5044999;28;20244;-76
2021/03/08 04:17:51;;;;;;;36.23;18.37;;;4.70;99.90;;;;;;5046669;28;20549;-76
2021/03/08 04:20:20;;;;;;;32.80;18.60;;;4.80;99.90;;;;;;5015082;28;20226;-76
2021/03/08 04:22:52;;;;;;;40.83;20.40;;;4.40;99.90;;;;;;5046832;28;20902;-76
2021/03/08 04:25:19;;;;;;;43.10;20.63;;;4.20;99.90;;;;;;5040887;28;20214;-75
2021/03/08 04:27:50;;;;;;;39.50;20.27;;;4.30;99.90;;;;;;5059548;28;20704;-75
2021/03/08 04:30:18;;;;;;;40.97;21.60;;;4.50;99.90;;;;;;5045723;28;20587;-74
2021/03/08 04:32:49;;;;;;;34.93;19.40;;;4.60;99.90;;;;;;5042651;28;20346;-75
2021/03/08 04:35:18;;;;;;;40.87;20.97;;;4.20;99.90;;;;;;5037440;28;20198;-74
2021/03/08 04:37:45;;;;;;;42.07;21.03;;;3.80;99.90;;;;;;5045767;28;20305;-74
2021/03/08 04:40:14;;;;;;;37.33;19.47;;;3.80;99.90;;;;;;5039582;28;20269;-75
2021/03/08 04:42:42;;;;;;;32.83;18.37;;;4.00;99.90;;;;;;5058448;28;20574;-75
2021/03/08 04:45:16;;;;;;;35.97;18.33;;;4.10;99.90;;;;;;5060602;28;20214;-75
2021/03/08 04:47:44;;;;;;;39.60;20.47;;;3.80;99.90;;;;;;5046271;28;20285;-75
2021/03/08 04:50:13;;;;;;;42.30;20.13;;;3.70;99.90;;;;;;5043643;28;20398;-75
2021/03/08 04:52:50;;;;;;;39.87;19.60;;;4.00;99.90;;;;;;5043476;28;20664;-75
2021/03/08 04:55:17;;;;;;;40.37;18.60;;;4.10;99.90;;;;;;5044855;28;20206;-74
2021/03/08 04:57:44;;;;;;;38.03;19.57;;;4.10;99.90;;;;;;5046482;28;20230;-75
2021/03/08 05:00:13;;;;;;;40.13;20.63;;;4.20;99.90;;;;;;5045341;28;20251;-75
2021/03/08 05:02:42;;;;;;;35.97;19.07;;;4.40;99.90;;;;;;5038953;28;20403;-75
2021/03/08 05:05:16;;;;;;;39.37;18.97;;;4.40;99.90;;;;;;5041581;28;20208;-75
2021/03/08 05:07:44;;;;;;;38.73;16.83;;;4.50;99.90;;;;;;5044306;28;20628;-75
2021/03/08 05:10:16;;;;;;;33.30;17.23;;;4.60;99.90;;;;;;5055982;28;20289;-75
2021/03/08 05:12:43;;;;;;;34.67;18.40;;;4.60;99.90;;;;;;5042495;28;20210;-75
2021/03/08 05:15:12;;;;;;;40.57;19.70;;;4.60;99.90;;;;;;5042874;28;20615;-75
2021/03/08 05:17:40;;;;;;;38.60;20.13;;;4.70;99.90;;;;;;5044874;28;20651;-76
2021/03/08 05:20:10;;;;;;;35.10;18.17;;;4.60;99.90;;;;;;5042717;28;20211;-75
2021/03/08 05:22:38;;;;;;;34.93;18.33;;;4.40;99.90;;;;;;5041072;28;20233;-76
2021/03/08 05:25:05;;;;;;;40.50;20.07;;;4.40;99.90;;;;;;5057837;28;20216;-75
2021/03/08 05:27:33;;;;;;;39.80;18.97;;;4.50;99.90;;;;;;5058068;28;20236;-75
2021/03/08 05:30:01;;;;;;;36.37;19.57;;;4.40;99.90;;;;;;5039370;28;20269;-74
2021/03/08 05:32:41;;;;;;;35.67;18.73;;;4.30;99.90;;;;;;5057337;28;20672;-74
2021/03/08 05:35:10;;;;;;;41.07;19.93;;;4.40;99.90;;;;;;5047233;28;20309;-75
2021/03/08 05:37:39;;;;;;;35.53;17.93;;;4.40;99.90;;;;;;5042071;28;20211;-75
2021/03/08 05:40:16;;;;;;;40.53;19.57;;;4.60;99.90;;;;;;5042761;28;20283;-75
2021/03/08 05:42:46;;;;;;;34.33;18.87;;;4.60;99.90;;;;;;5043279;28;20271;-75
2021/03/08 05:45:19;;;;;;;38.60;19.70;;;4.70;99.90;;;;;;5039019;28;20214;-75
2021/03/08 05:48:23;;;;;;;43.57;19.47;;;4.60;99.90;;;;;;5039896;28;20611;-75
2021/03/08 05:51:28;;;;;;;42.53;20.60;;;4.70;99.90;;;;;;5041640;28;20210;-75
2021/03/08 05:54:13;;;;;;;38.73;19.23;;;4.70;99.90;;;;;;5055136;28;20317;-75
2021/03/08 05:56:47;;;;;;;39.20;18.90;;;4.60;99.90;;;;;;5039681;28;20235;-74
2021/03/08 05:59:34;;;;;;;38.40;19.17;;;4.30;99.90;;;;;;5036773;28;20829;-75
2021/03/08 06:02:00;;;;;;;39.87;19.43;;;4.20;99.90;;;;;;5035717;28;20255;-75
2021/03/08 06:04:53;;;;;;;35.20;18.10;;;4.10;99.90;;;;;;5037063;28;20215;-76
2021/03/08 06:08:00;;;;;;;39.47;19.77;;;4.10;99.90;;;;;;5037188;28;20687;-75
2021/03/08 06:10:32;;;;;;;37.67;19.63;;;4.20;99.90;;;;;;5035227;28;20228;-76
2021/03/08 06:13:05;;;;;;;31.17;18.30;;;4.30;99.90;;;;;;5036379;28;20243;-75
2021/03/08 06:15:34;;;;;;;35.50;18.93;;;4.40;99.90;;;;;;5025771;28;20274;-75
2021/03/08 06:18:09;;;;;;;42.43;20.87;;;4.60;99.90;;;;;;5019619;28;20224;-76
2021/03/08 06:20:36;;;;;;;36.50;18.37;;;4.60;99.90;;;;;;5025253;28;20200;-75
2021/03/08 06:23:03;;;;;;;34.73;19.33;;;4.60;99.90;;;;;;5027402;28;20222;-75
2021/03/08 06:25:30;;;;;;;43.43;20.57;;;4.70;99.90;;;;;;5037993;28;20343;-75
2021/03/08 06:27:57;;;;;;;39.00;19.37;;;4.60;99.90;;;;;;5032017;28;20255;-76
2021/03/08 06:30:27;;;;;;;39.70;21.10;;;4.50;99.90;;;;;;5040150;28;20201;-76
2021/03/08 06:32:54;;;;;;;42.47;21.30;;;4.40;99.90;;;;;;5037342;28;20219;-76
2021/03/08 06:35:22;;;;;;;37.40;19.70;;;4.30;99.90;;;;;;5040795;28;20421;-81
2021/03/08 06:37:49;;;;;;;42.83;20.93;;;4.70;99.90;;;;;;5008554;28;20202;-79
2021/03/08 06:40:16;;;;;;;40.47;20.70;;;4.60;99.90;;;;;;5024715;28;20983;-79
2021/03/08 06:42:43;;;;;;;42.57;22.27;;;4.60;99.90;;;;;;5027213;28;20200;-77
2021/03/08 06:45:10;;;;;;;38.30;19.10;;;4.40;99.90;;;;;;5014608;28;20230;-76
2021/03/08 06:47:36;;;;;;;34.93;18.77;;;4.20;99.90;;;;;;5026790;28;20270;-75
2021/03/08 06:50:03;;;;;;;44.60;21.33;;;4.10;99.90;;;;;;5028190;28;20199;-77
2021/03/08 06:52:40;;;;;;;41.50;19.63;;;4.20;99.90;;;;;;5041855;28;20217;-76
2021/03/08 06:55:08;;;;;;;41.67;20.20;;;4.20;99.90;;;;;;5039001;28;20243;-75
2021/03/08 06:57:38;;;;;;;38.10;20.00;;;4.20;99.90;;;;;;5030098;28;20250;-78
2021/03/08 07:00:10;;;;;;;39.30;19.30;;;4.00;99.90;;;;;;5027210;28;20198;-77
2021/03/08 07:02:48;;;;;;;44.67;20.67;;;3.90;99.90;;;;;;5046633;28;20199;-76
2021/03/08 07:05:26;;;;;;;41.30;20.00;;;3.90;99.90;;;;;;5037594;28;20212;-76
2021/03/08 07:07:54;;;;;;;41.73;20.40;;;3.80;99.90;;;;;;5041292;28;20257;-75
2021/03/08 07:10:35;;;;;;;43.90;20.90;;;3.80;99.90;;;;;;5014781;28;21365;-76
2021/03/08 07:13:04;;;;;;;40.00;19.67;;;4.10;99.90;;;;;;5027766;28;20541;-75
2021/03/08 07:15:30;;;;;;;40.60;21.13;;;4.10;99.90;;;;;;5047191;28;20652;-72
2021/03/08 07:17:57;;;;;;;44.77;21.90;;;4.10;99.90;;;;;;5056701;28;20209;-72
2021/03/08 07:20:27;;;;;;;39.53;21.77;;;4.20;99.90;;;;;;5038235;28;20200;-72
2021/03/08 07:22:55;;;;;;;43.47;21.23;;;4.20;99.90;;;;;;5060591;28;20201;-73
2021/03/08 07:25:25;;;;;;;41.50;20.43;;;4.20;99.90;;;;;;5058877;28;20210;-74
2021/03/08 07:27:52;;;;;;;42.33;20.23;;;4.20;99.90;;;;;;5064985;28;20224;-74
2021/03/08 07:30:25;;;;;;;44.57;21.80;;;4.30;99.90;;;;;;5057588;28;20277;-72
2021/03/08 07:33:12;;;;;;;35.80;19.57;;;4.30;99.90;;;;;;5047231;28;20217;-77
2021/03/08 07:35:57;;;;;;;45.43;20.57;;;4.20;99.90;;;;;;5056091;28;20281;-75
2021/03/08 07:38:30;;;;;;;42.57;20.10;;;4.30;99.90;;;;;;5056562;28;20222;-74
2021/03/08 07:41:20;;;;;;;41.57;21.67;;;4.60;99.90;;;;;;5058736;28;20332;-74
2021/03/08 07:43:51;;;;;;;39.07;18.47;;;4.50;99.90;;;;;;5061128;28;20314;-75
2021/03/08 07:46:35;;;;;;;42.20;19.80;;;4.40;99.90;;;;;;5063568;28;20233;-74
2021/03/08 07:49:06;;;;;;;44.27;19.97;;;4.40;99.90;;;;;;5051986;28;20383;-74
2021/03/08 07:51:34;;;;;;;45.90;21.60;;;4.40;99.90;;;;;;5048036;28;20703;-73
2021/03/08 07:54:01;;;;;;;46.20;22.23;;;4.40;99.90;;;;;;5044220;28;20208;-74
2021/03/08 07:56:28;;;;;;;38.27;20.10;;;4.30;99.90;;;;;;5055095;28;20603;-73
2021/03/08 07:58:56;;;;;;;42.00;20.37;;;4.30;99.90;;;;;;5061580;28;20199;-73
2021/03/08 08:01:23;;;;;;;37.47;19.97;;;4.30;99.90;;;;;;5057028;28;20854;-73
2021/03/08 08:03:51;;;;;;;43.03;18.90;;;4.20;99.90;;;;;;5046166;28;20574;-75
2021/03/08 08:06:20;;;;;;;40.30;21.73;;;4.20;99.90;;;;;;5049708;28;20222;-74
2021/03/08 08:08:52;;;;;;;36.87;20.80;;;4.50;99.90;;;;;;5062912;28;20205;-74
2021/03/08 08:11:20;;;;;;;42.27;21.20;;;4.70;99.90;;;;;;5060785;28;20217;-73
2021/03/08 08:14:07;;;;;;;43.23;19.77;;;4.60;99.90;;;;;;5058126;28;20340;-75
2021/03/08 08:16:35;;;;;;;41.53;21.00;;;4.50;99.90;;;;;;5059453;28;20603;-75
2021/03/08 08:19:08;;;;;;;41.10;21.10;;;4.50;99.90;;;;;;5060536;28;21463;-74
2021/03/08 08:21:39;;;;;;;48.47;22.53;;;4.60;99.90;;;;;;5046744;28;20231;-75
2021/03/08 08:24:09;;;;;;;42.73;20.60;;;4.40;99.90;;;;;;5059098;28;20199;-77
2021/03/08 08:26:36;;;;;;;43.53;20.23;;;4.50;99.90;;;;;;5044750;28;20215;-76
2021/03/08 08:29:03;;;;;;;39.17;21.70;;;4.80;99.90;;;;;;5042568;28;20207;-75
2021/03/08 08:32:03;;;;;;;38.43;19.57;;;5.20;99.90;;;;;;5057323;28;20210;-73
2021/03/08 08:34:39;;;;;;;41.63;20.47;;;5.10;99.90;;;;;;5056448;28;20213;-74
2021/03/08 08:37:26;;;;;;;40.43;21.27;;;5.10;99.90;;;;;;5058573;28;20298;-74
2021/03/08 08:39:52;;;;;;;38.30;20.33;;;5.40;99.90;;;;;;5061510;28;20292;-75
2021/03/08 08:42:24;;;;;;;37.07;19.17;;;5.30;99.90;;;;;;5059520;28;20812;-74
2021/03/08 08:44:53;;;;;;;40.17;18.97;;;5.30;99.90;;;;;;5059757;28;20225;-74
2021/03/08 08:47:33;;;;;;;38.70;20.13;;;5.20;99.90;;;;;;5059048;28;20730;-81
2021/03/08 08:50:04;;;;;;;41.20;20.00;;;5.10;99.90;;;;;;5059186;28;20578;-80
2021/03/08 08:52:54;;;;;;;40.90;20.23;;;5.30;99.90;;;;;;5046817;28;20761;-75
2021/03/08 08:55:33;;;;;;;38.43;19.83;;;5.30;99.90;;;;;;5064382;28;20211;-79
2021/03/08 08:58:23;;;;;;;40.43;19.53;;;5.50;99.90;;;;;;5064518;28;20202;-81
2021/03/08 09:01:09;;;;;;;40.20;21.27;;;5.30;99.90;;;;;;5041961;28;20207;-86
2021/03/08 09:04:09;;;;;;;47.00;19.43;;;5.60;99.90;;;;;;5071851;28;20215;-80
2021/03/08 09:06:45;;;;;;;41.90;20.23;;;6.00;99.90;;;;;;5047964;28;20636;-81
2021/03/08 09:09:15;;;;;;;36.93;19.20;;;6.20;99.90;;;;;;5049504;28;20218;-81
2021/03/08 09:11:47;;;;;;;43.10;21.50;;;6.00;99.90;;;;;;5063986;28;20196;-80
2021/03/08 09:14:33;;;;;;;42.23;21.23;;;6.00;99.90;;;;;;5047037;28;20676;-85
2021/03/08 09:17:19;;;;;;;36.50;20.00;;;6.10;99.90;;;;;;5061228;28;20659;-81
2021/03/08 09:19:50;;;;;;;38.80;19.43;;;6.50;99.90;;;;;;5060588;28;20203;-79
2021/03/08 09:22:23;;;;;;;37.80;20.03;;;6.60;99.90;;;;;;5060533;28;20267;-79
2021/03/08 09:24:52;;;;;;;36.50;19.07;;;6.40;99.90;;;;;;5056951;28;20203;-80
2021/03/08 09:27:27;;;;;;;33.20;18.17;;;6.80;99.90;;;;;;5054242;28;20199;-81
2021/03/08 09:30:00;;;;;;;29.57;17.33;;;6.70;99.90;;;;;;5043107;28;20212;-83
2021/03/08 09:32:26;;;;;;;34.83;16.70;;;6.90;99.90;;;;;;5038596;28;20588;-80
2021/03/08 09:34:53;;;;;;;32.53;17.30;;;7.10;99.90;;;;;;5059971;28;20569;-79
2021/03/08 09:37:20;;;;;;;29.37;15.73;;;7.10;99.90;;;;;;5031311;28;20217;-80
2021/03/08 09:39:55;;;;;;;32.23;17.27;;;7.10;99.90;;;;;;5061072;28;20220;-79
2021/03/08 09:42:22;;;;;;;31.67;18.07;;;7.10;99.90;;;;;;5064427;28;20283;-80
2021/03/08 09:44:49;;;;;;;30.40;16.53;;;7.10;99.90;;;;;;5041869;28;20211;-78
2021/03/08 09:47:16;;;;;;;37.13;17.30;;;7.20;99.90;;;;;;5045382;28;20213;-79
2021/03/08 09:49:46;;;;;;;29.90;16.53;;;7.00;99.90;;;;;;5048958;28;20614;-80
2021/03/08 09:52:39;;;;;;;30.87;15.67;;;7.00;99.90;;;;;;5066451;28;20662;-80
2021/03/08 09:55:08;;;;;;;31.30;15.87;;;7.10;99.90;;;;;;5067404;28;20616;-78
2021/03/08 09:57:37;;;;;;;30.53;15.93;;;7.40;99.90;;;;;;5058910;28;20226;-78
2021/03/08 10:00:18;;;;;;;31.17;17.13;;;7.50;99.90;;;;;;5059066;28;20216;-78
2021/03/08 10:02:45;;;;;;;31.97;16.63;;;7.70;99.90;;;;;;5058738;28;20835;-78
2021/03/08 10:05:14;;;;;;;28.73;16.97;;;7.90;99.90;;;;;;5058489;28;20286;-78
2021/03/08 10:07:56;;;;;;;28.20;14.80;;;7.80;99.90;;;;;;5061132;28;20200;-79
2021/03/08 10:10:25;;;;;;;30.27;14.90;;;7.70;99.90;;;;;;5042315;28;20192;-79
2021/03/08 10:12:59;;;;;;;30.60;15.77;;;7.80;99.90;;;;;;5051065;28;20275;-80
2021/03/08 10:15:27;;;;;;;29.67;15.33;;;7.60;99.90;;;;;;5051576;28;20286;-78
2021/03/08 10:17:59;;;;;;;29.37;16.03;;;7.60;99.90;;;;;;5070688;28;20210;-78
2021/03/08 10:20:31;;;;;;;26.63;14.70;;;7.70;99.90;;;;;;5060875;28;20566;-77
2021/03/08 10:22:58;;;;;;;28.07;15.07;;;7.90;99.90;;;;;;5050292;28;20246;-78
2021/03/08 10:25:32;;;;;;;30.10;16.17;;;7.70;99.90;;;;;;5068692;28;21104;-79
2021/03/08 10:28:03;;;;;;;29.37;15.87;;;7.90;99.90;;;;;;5053544;28;21376;-78
2021/03/08 10:30:33;;;;;;;25.57;14.73;;;7.80;99.90;;;;;;5064035;28;20582;-77
2021/03/08 10:33:02;;;;;;;31.93;15.37;;;7.90;99.90;;;;;;5059426;28;20222;-80
2021/03/08 10:35:36;;;;;;;28.43;16.03;;;7.90;99.90;;;;;;5052090;28;20213;-80
2021/03/08 10:38:39;;;;;;;28.87;15.63;;;7.70;99.90;;;;;;5054207;28;20254;-76
2021/03/08 10:41:06;;;;;;;25.43;13.73;;;8.00;99.90;;;;;;5049207;28;20196;-80
2021/03/08 10:43:33;;;;;;;23.80;13.73;;;8.00;99.90;;;;;;5052695;28;20573;-80
2021/03/08 10:46:01;;;;;;;28.37;14.47;;;8.30;99.90;;;;;;5041904;28;20355;-78
2021/03/08 10:48:28;;;;;;;24.17;13.53;;;8.50;99.90;;;;;;5064350;28;20628;-80
2021/03/08 10:51:19;;;;;;;24.47;13.53;;;8.70;99.90;;;;;;5051064;28;20211;-79
2021/03/08 10:54:09;;;;;;;28.10;14.27;;;9.00;99.90;;;;;;5063719;28;20234;-81
2021/03/08 10:56:40;;;;;;;25.97;13.90;;;8.90;99.90;;;;;;5047238;28;20232;-79
2021/03/08 10:59:30;;;;;;;22.10;11.83;;;8.90;99.90;;;;;;5049479;28;20623;-78
2021/03/08 11:02:01;;;;;;;23.43;12.47;;;8.70;99.90;;;;;;5044483;28;20281;-81
2021/03/08 11:04:27;;;;;;;23.27;12.43;;;9.10;99.90;;;;;;5063499;28;20650;-80
2021/03/08 11:06:54;;;;;;;21.90;12.97;;;9.00;99.90;;;;;;5063612;28;20203;-77
2021/03/08 11:09:26;;;;;;;20.70;12.30;;;8.90;99.90;;;;;;5050529;28;22625;-81
2021/03/08 11:11:52;;;;;;;22.53;12.53;;;9.10;99.90;;;;;;5030204;28;20261;-79
2021/03/08 11:14:20;;;;;;;23.37;11.93;;;9.00;99.90;;;;;;5033616;28;20264;-78
2021/03/08 11:16:51;;;;;;;17.30;10.37;;;8.80;99.90;;;;;;5044536;28;20519;-77
2021/03/08 11:19:26;;;;;;;17.93;9.87;;;9.20;99.90;;;;;;5033624;28;20313;-77
2021/03/08 11:22:08;;;;;;;17.47;10.93;;;9.50;99.90;;;;;;5056268;28;20314;-78
2021/03/08 11:24:46;;;;;;;22.43;9.97;;;9.60;99.90;;;;;;5052455;28;20222;-78
2021/03/08 11:27:23;;;;;;;17.10;9.63;;;9.80;99.90;;;;;;5061641;28;20212;-76
2021/03/08 11:30:05;;;;;;;23.87;10.27;;;9.60;99.60;;;;;;5045475;28;20577;-76
2021/03/08 11:32:33;;;;;;;16.90;9.83;;;10.00;99.20;;;;;;5064176;28;20195;-75
2021/03/08 11:35:19;;;;;;;19.90;9.87;;;9.70;98.50;;;;;;5057048;28;20214;-78
2021/03/08 11:38:14;;;;;;;16.43;9.30;;;9.90;98.00;;;;;;5047957;28;20339;-78
2021/03/08 11:40:46;;;;;;;19.00;10.43;;;9.90;97.90;;;;;;5060648;28;20315;-76
2021/03/08 11:43:21;;;;;;;18.03;9.50;;;9.50;98.30;;;;;;5059788;28;20203;-77
2021/03/08 11:45:51;;;;;;;18.87;8.97;;;9.40;98.00;;;;;;5050533;28;21115;-77
2021/03/08 11:48:23;;;;;;;13.30;8.10;;;9.80;97.00;;;;;;5049151;28;20351;-82
2021/03/08 11:50:51;;;;;;;14.50;7.77;;;10.00;96.10;;;;;;5052043;28;20237;-79
2021/03/08 11:53:18;;;;;;;12.83;7.90;;;10.10;95.60;;;;;;5071487;28;21147;-79
2021/03/08 11:55:44;;;;;;;14.50;8.20;;;9.70;95.50;;;;;;5052242;28;20217;-81
2021/03/08 11:58:12;;;;;;;14.57;7.90;;;9.00;96.30;;;;;;5033637;28;20287;-80
2021/03/08 12:00:38;;;;;;;10.20;5.87;;;8.80;96.60;;;;;;5057703;28;20204;-78
2021/03/08 12:03:05;;;;;;;10.43;6.13;;;9.00;94.60;;;;;;5052444;28;20259;-81
2021/03/08 12:05:32;;;;;;;12.57;6.30;;;9.40;94.60;;;;;;5048653;28;20215;-80
2021/03/08 12:08:12;;;;;;;14.27;7.00;;;9.30;93.90;;;;;;5067753;28;20210;-80
2021/03/08 12:10:39;;;;;;;13.63;7.37;;;9.60;95.90;;;;;;5046106;28;20268;-80
2021/03/08 12:13:05;;;;;;;12.43;7.37;;;10.00;93.80;;;;;;5053489;28;21434;-78
2021/03/08 12:15:32;;;;;;;11.37;7.27;;;10.50;94.10;;;;;;5046124;28;20326;-80
2021/03/08 12:17:58;;;;;;;12.80;7.20;;;10.30;92.50;;;;;;5050607;28;20227;-78
2021/03/08 12:20:25;;;;;;;10.53;6.20;;;11.10;92.30;;;;;;5045202;28;20203;-81
2021/03/08 12:22:51;;;;;;;11.63;7.07;;;12.30;91.40;;;;;;5014267;28;20208;-81
2021/03/08 12:25:17;;;;;;;12.80;7.10;;;13.10;81.30;;;;;;5040833;28;20204;-80
2021/03/08 12:27:48;;;;;;;15.63;7.97;;;13.40;77.40;;;;;;5041958;28;20266;-76
2021/03/08 12:30:15;;;;;;;12.70;6.47;;;12.70;72.60;;;;;;5023449;28;20209;-77
2021/03/08 12:32:44;;;;;;;11.67;6.87;;;13.00;74.20;;;;;;5027425;28;20248;-77
2021/03/08 12:35:12;;;;;;;14.03;8.03;;;13.90;72.30;;;;;;5019550;28;20196;-77
2021/03/08 12:37:38;;;;;;;17.50;9.97;;;13.70;63.30;;;;;;5039622;28;20356;-80
2021/03/08 12:40:05;;;;;;;17.97;8.97;;;13.70;68.00;;;;;;5043920;28;20208;-84
2021/03/08 12:42:31;;;;;;;18.63;9.80;;;13.00;68.20;;;;;;5027494;28;20208;-80
2021/03/08 12:44:57;;;;;;;19.67;10.37;;;12.80;68.60;;;;;;5022112;28;20196;-80
2021/03/08 12:47:24;;;;;;;19.07;10.37;;;13.20;67.50;;;;;;5025034;28;20205;-79
2021/03/08 12:49:50;;;;;;;20.43;11.13;;;13.70;66.20;;;;;;5024375;28;20197;-79
2021/03/08 12:52:17;;;;;;;16.33;10.37;;;13.60;68.00;;;;;;5034260;28;20246;-79
2021/03/08 12:54:43;;;;;;;19.00;11.07;;;14.20;68.70;;;;;;5029007;28;20267;-79
2021/03/08 12:57:09;;;;;;;20.43;10.70;;;14.20;64.50;;;;;;5024622;28;20262;-79
2021/03/08 12:59:36;;;;;;;18.90;9.77;;;14.00;65.80;;;;;;5026176;28;20255;-79